Time;durP1;ratioP1;P1;durP2;ratioP2;P2;SDS_P1;SDS_P2;PMS_P1;PMS_P2;Temp;Humidity;BMP_temperature;BMP_pressure;BME280_temperature;BME280_humidity;BME280_pressure;Samples;Min_cycle;Max_cycle;Signal;HPM_P1;HPM_P2
2022/06/27 00:01:12;;;;;;;;;;;;;;;16.53;85.65;98103.00;1679232;85;20194;-83
2022/06/27 00:03:37;;;;;;;;;;;;;;;16.45;85.63;98104.58;1682380;85;21975;-83
2022/06/27 00:06:03;;;;;;;;;;;;;;;16.41;84.76;98108.25;1682187;85;20205;-87
2022/06/27 00:08:29;;;;;;;;;;;;;;;16.36;85.87;98105.11;1682659;85;20269;-83
2022/06/27 00:10:55;;;;;;;;;;;;;;;16.28;87.11;98100.41;1682425;85;20168;-82
2022/06/27 00:13:20;;;;;;;;;;;;;;;16.25;86.56;98102.41;1671761;84;20726;-83
2022/06/27 00:15:46;;;;;;;;;;;;;;;16.25;84.57;98103.78;1682223;85;21171;-83
2022/06/27 00:18:12;;;;;;;;;;;;;;;16.20;85.14;98108.81;1682476;84;20172;-83
2022/06/27 00:20:38;;;;;;;;;;;;;;;16.21;84.66;98110.42;1681957;84;20224;-84
2022/06/27 00:23:04;;;;;;;;;;;;;;;16.18;83.94;98113.78;1680503;85;20494;-86
2022/06/27 00:25:30;;;;;;;;;;;;;;;16.18;84.48;98107.52;1677919;85;20202;-87
2022/06/27 00:27:55;;;;;;;;;;;;;;;16.15;88.33;98112.22;1682273;85;21967;-83
2022/06/27 00:30:21;;;;;;;;;;;;;;;16.12;85.91;98116.96;1682281;85;20206;-87
2022/06/27 00:32:48;;;;;;;;;;;;;;;16.11;87.55;98116.72;1680258;85;20194;-83
2022/06/27 00:35:14;;;;;;;;;;;;;;;16.08;86.40;98120.89;1682482;85;20481;-87
2022/06/27 00:37:40;;;;;;;;;;;;;;;16.00;88.98;98120.28;1682564;84;20208;-87
2022/06/27 00:40:06;;;;;;;;;;;;;;;15.98;87.96;98119.23;1683472;84;21271;-87
2022/06/27 00:42:32;;;;;;;;;;;;;;;15.98;86.45;98120.60;1675528;85;20491;-87
2022/06/27 00:44:58;;;;;;;;;;;;;;;16.01;85.32;98121.33;1667882;85;20198;-87
2022/06/27 00:47:24;;;;;;;;;;;;;;;15.96;87.90;98120.08;1660827;85;20665;-87
2022/06/27 00:49:50;;;;;;;;;;;;;;;15.92;86.44;98117.73;1682423;85;20186;-83
2022/06/27 00:52:15;;;;;;;;;;;;;;;15.83;86.95;98115.52;1682789;84;21111;-87
2022/06/27 00:54:42;;;;;;;;;;;;;;;15.64;89.08;98115.71;1682823;84;20204;-83
2022/06/27 00:57:08;;;;;;;;;;;;;;;15.58;88.64;98112.00;1682549;84;20190;-83
2022/06/27 00:59:34;;;;;;;;;;;;;;;15.50;88.92;98113.55;1672406;85;20284;-83
2022/06/27 01:02:01;;;;;;;;;;;;;;;15.49;87.70;98114.67;1682502;85;20178;-87
2022/06/27 01:04:28;;;;;;;;;;;;;;;15.47;89.46;98120.45;1681899;85;21139;-87
2022/06/27 01:06:53;;;;;;;;;;;;;;;15.49;89.17;98126.40;1681515;85;20148;-87
2022/06/27 01:09:22;;;;;;;;;;;;;;;15.51;88.12;98122.80;1682727;85;20178;-83
2022/06/27 01:11:48;;;;;;;;;;;;;;;15.54;84.55;98128.19;1654753;85;20695;-84
2022/06/27 01:14:14;;;;;;;;;;;;;;;15.66;85.16;98131.22;1663784;85;20284;-87
2022/06/27 01:16:40;;;;;;;;;;;;;;;15.76;87.84;98128.80;1668850;84;21087;-82
2022/06/27 01:19:09;;;;;;;;;;;;;;;15.75;88.89;98129.92;1682338;84;20192;-87
2022/06/27 01:21:35;;;;;;;;;;;;;;;15.74;87.35;98124.21;1682376;84;20172;-87
2022/06/27 01:24:01;;;;;;;;;;;;;;;15.70;87.48;98126.73;1682851;85;20179;-87
2022/06/27 01:26:27;;;;;;;;;;;;;;;15.69;87.58;98125.13;1668697;85;20203;-83
2022/06/27 01:28:52;;;;;;;;;;;;;;;15.70;88.24;98121.27;1682587;84;20613;-83
2022/06/27 01:31:18;;;;;;;;;;;;;;;15.70;88.56;98122.64;1675203;85;20204;-87
2022/06/27 01:33:44;;;;;;;;;;;;;;;15.64;89.41;98121.17;1682564;84;20204;-83
2022/06/27 01:38:54;;;;;;;;;;;;;;;15.53;87.26;98119.75;1682903;85;20171;-87
2022/06/27 01:41:20;;;;;;;;;;;;;;;15.50;87.12;98115.72;1682507;85;21945;-87
2022/06/27 01:43:46;;;;;;;;;;;;;;;15.45;88.93;98115.02;1682661;84;20334;-87
2022/06/27 01:46:12;;;;;;;;;;;;;;;15.35;89.64;98112.53;1679990;85;20182;-83
2022/06/27 01:48:38;;;;;;;;;;;;;;;15.32;88.92;98115.33;1665664;84;20652;-87
2022/06/27 01:51:04;;;;;;;;;;;;;;;15.28;89.80;98118.97;1670419;85;20204;-87
2022/06/27 01:53:30;;;;;;;;;;;;;;;15.26;89.45;98118.48;1682617;84;21086;-83
2022/06/27 01:55:55;;;;;;;;;;;;;;;15.25;88.46;98117.67;1680625;85;20806;-88
2022/06/27 01:58:21;;;;;;;;;;;;;;;15.26;89.97;98126.67;1681915;85;20221;-83
2022/06/27 02:00:47;;;;;;;;;;;;;;;15.27;87.40;98123.63;1682635;85;20158;-87
2022/06/27 02:03:13;;;;;;;;;;;;;;;15.25;90.74;98121.77;1682595;85;20273;-88
2022/06/27 02:05:39;;;;;;;;;;;;;;;15.25;90.51;98117.67;1679982;85;21894;-87
2022/06/27 02:08:05;;;;;;;;;;;;;;;15.23;89.31;98119.35;1680575;85;20277;-87
2022/06/27 02:10:30;;;;;;;;;;;;;;;15.23;89.43;98120.72;1668836;85;20264;-83
2022/06/27 02:12:56;;;;;;;;;;;;;;;15.20;88.82;98119.94;1682323;85;20158;-83
2022/06/27 02:15:22;;;;;;;;;;;;;;;15.16;89.62;98123.05;1678543;85;20691;-83
2022/06/27 02:17:48;;;;;;;;;;;;;;;15.05;90.93;98127.13;1681727;85;21069;-87
2022/06/27 02:20:14;;;;;;;;;;;;;;;15.04;89.91;98121.95;1678007;85;20182;-87
2022/06/27 02:22:40;;;;;;;;;;;;;;;15.02;89.30;98129.64;1681531;85;20171;-87
2022/06/27 02:25:07;;;;;;;;;;;;;;;14.95;90.48;98125.43;1680523;85;20426;-87
2022/06/27 02:27:34;;;;;;;;;;;;;;;14.95;89.21;98128.69;1675594;84;20175;-87
2022/06/27 02:30:00;;;;;;;;;;;;;;;14.91;90.87;98129.06;1667872;85;21862;-87
2022/06/27 02:32:27;;;;;;;;;;;;;;;14.87;90.84;98130.80;1675051;84;20216;-82
2022/06/27 02:34:53;;;;;;;;;;;;;;;14.84;90.11;98122.64;1682853;85;20538;-83
2022/06/27 02:37:19;;;;;;;;;;;;;;;14.81;90.99;98127.35;1682557;84;20673;-82
2022/06/27 02:39:44;;;;;;;;;;;;;;;14.79;91.63;98132.31;1679305;84;20404;-83
2022/06/27 02:42:11;;;;;;;;;;;;;;;14.81;90.62;98125.99;1671792;85;21237;-84
2022/06/27 02:44:38;;;;;;;;;;;;;;;14.80;90.34;98124.38;1682683;85;20997;-86
2022/06/27 02:47:03;;;;;;;;;;;;;;;14.81;89.11;98127.91;1683893;84;20453;-87
2022/06/27 02:49:29;;;;;;;;;;;;;;;14.83;89.77;98125.13;1683201;85;20183;-87
2022/06/27 02:52:02;;;;;;;;;;;;;;;14.83;89.51;98122.95;1678421;85;20588;-87
2022/06/27 02:54:40;;;;;;;;;;;;;;;14.85;87.80;98129.71;1670991;85;21094;-82
2022/06/27 02:57:17;;;;;;;;;;;;;;;14.87;89.72;98130.23;1662919;85;20582;-86
2022/06/27 02:59:45;;;;;;;;;;;;;;;14.87;91.32;98126.70;1653942;85;20174;-86
2022/06/27 03:02:11;;;;;;;;;;;;;;;14.89;90.57;98129.37;1682636;84;20193;-83
2022/06/27 03:04:38;;;;;;;;;;;;;;;14.89;91.79;98132.09;1671564;85;20780;-87
2022/06/27 03:07:04;;;;;;;;;;;;;;;14.90;90.86;98131.54;1677842;85;21060;-83
2022/06/27 03:09:30;;;;;;;;;;;;;;;14.87;91.60;98130.80;1682602;85;20249;-86
2022/06/27 03:11:55;;;;;;;;;;;;;;;14.86;90.93;98133.24;1671933;85;20333;-86
2022/06/27 03:14:21;;;;;;;;;;;;;;;14.84;91.03;98126.73;1677345;85;20193;-82
2022/06/27 03:16:47;;;;;;;;;;;;;;;14.82;90.40;98130.89;1682400;85;20176;-87
2022/06/27 03:19:13;;;;;;;;;;;;;;;14.79;88.39;98127.42;1682549;84;21084;-86
2022/06/27 03:21:39;;;;;;;;;;;;;;;14.76;89.06;98134.27;1682234;85;20182;-83
2022/06/27 03:24:05;;;;;;;;;;;;;;;14.78;90.51;98132.59;1682705;85;20195;-86
2022/06/27 03:26:31;;;;;;;;;;;;;;;14.92;89.71;98136.94;1681304;85;20170;-86
2022/06/27 03:28:56;;;;;;;;;;;;;;;15.08;91.15;98140.70;1682492;85;20162;-87
2022/06/27 03:31:22;;;;;;;;;;;;;;;15.18;92.08;98135.02;1677772;85;21102;-86
2022/06/27 03:33:49;;;;;;;;;;;;;;;15.29;92.06;98139.69;1682559;85;20265;-83
2022/06/27 03:36:15;;;;;;;;;;;;;;;15.44;90.04;98143.45;1682513;85;20193;-83
2022/06/27 03:38:41;;;;;;;;;;;;;;;15.53;90.75;98145.69;1682837;85;20166;-83
2022/06/27 03:41:07;;;;;;;;;;;;;;;15.61;90.10;98147.72;1675273;85;20249;-82
2022/06/27 03:43:33;;;;;;;;;;;;;;;15.66;89.71;98147.61;1682552;84;21875;-86
2022/06/27 03:45:58;;;;;;;;;;;;;;;15.74;88.80;98148.80;1681718;84;20246;-87
2022/06/27 03:51:08;;;;;;;;;;;;;;;15.88;88.11;98142.69;1671773;84;20640;-86
2022/06/27 03:53:34;;;;;;;;;;;;;;;15.99;88.08;98144.63;1682475;85;20210;-86
2022/06/27 03:55:59;;;;;;;;;;;;;;;16.05;88.01;98146.91;1682395;85;21051;-87
2022/06/27 03:58:25;;;;;;;;;;;;;;;16.20;87.33;98151.74;1682500;84;20243;-83
2022/06/27 04:00:51;;;;;;;;;;;;;;;16.32;87.38;98155.53;1677770;84;20199;-83
2022/06/27 04:03:17;;;;;;;;;;;;;;;16.54;84.48;98156.02;1682285;84;20150;-83
2022/06/27 04:05:42;;;;;;;;;;;;;;;16.68;84.21;98158.66;1680363;85;20174;-88
2022/06/27 04:08:08;;;;;;;;;;;;;;;16.73;85.15;98157.17;1677665;84;21196;-83
2022/06/27 04:10:34;;;;;;;;;;;;;;;16.83;84.81;98153.33;1682417;85;20807;-83
2022/06/27 04:13:00;;;;;;;;;;;;;;;16.89;84.64;98156.98;1656157;85;20177;-87
2022/06/27 04:15:26;;;;;;;;;;;;;;;16.98;84.21;98147.42;1680411;85;20656;-87
2022/06/27 04:17:51;;;;;;;;;;;;;;;17.06;84.33;98152.69;1658122;85;20212;-88
2022/06/27 04:20:17;;;;;;;;;;;;;;;17.15;84.04;98158.42;1661632;85;21127;-87
2022/06/27 04:22:43;;;;;;;;;;;;;;;17.32;83.64;98159.01;1682502;85;20742;-88
2022/06/27 04:25:09;;;;;;;;;;;;;;;17.40;83.39;98160.15;1682882;85;20697;-83
2022/06/27 04:27:35;;;;;;;;;;;;;;;17.54;82.96;98162.19;1682561;84;20568;-83
2022/06/27 04:30:01;;;;;;;;;;;;;;;17.61;83.08;98158.97;1680430;85;20286;-87
2022/06/27 04:32:28;;;;;;;;;;;;;;;17.78;82.60;98164.48;1642108;86;21208;-82
2022/06/27 04:34:54;;;;;;;;;;;;;;;17.92;82.39;98161.55;1654602;85;20186;-88
2022/06/27 04:37:20;;;;;;;;;;;;;;;18.04;81.64;98161.72;1676397;85;20467;-88
2022/06/27 04:39:46;;;;;;;;;;;;;;;18.15;81.46;98161.61;1673052;85;20549;-88
2022/06/27 04:42:13;;;;;;;;;;;;;;;18.24;81.28;98162.39;1682522;85;20313;-83
2022/06/27 04:44:43;;;;;;;;;;;;;;;18.42;81.08;98174.13;1682641;85;21785;-84
2022/06/27 04:47:08;;;;;;;;;;;;;;;18.56;80.56;98171.19;1681349;84;20296;-83
2022/06/27 04:49:35;;;;;;;;;;;;;;;18.73;80.52;98171.16;1682569;85;20178;-88
2022/06/27 04:52:01;;;;;;;;;;;;;;;18.89;80.19;98167.30;1671179;85;20145;-83
2022/06/27 04:54:27;;;;;;;;;;;;;;;19.07;79.95;98167.44;1692175;83;20187;-87
2022/06/27 04:56:54;;;;;;;;;;;;;;;19.28;79.83;98164.72;1671468;85;21174;-88
2022/06/27 04:59:21;;;;;;;;;;;;;;;19.49;79.34;98163.95;1668504;83;20211;-83
2022/06/27 05:01:50;;;;;;;;;;;;;;;19.66;78.65;98164.65;1660283;85;20198;-83
2022/06/27 05:04:17;;;;;;;;;;;;;;;19.84;77.54;98165.88;1673723;84;20222;-88
2022/06/27 05:06:44;;;;;;;;;;;;;;;19.99;77.25;98165.23;1676154;84;20186;-84
2022/06/27 05:09:10;;;;;;;;;;;;;;;20.14;76.33;98163.81;1680386;84;21867;-88
2022/06/27 05:11:36;;;;;;;;;;;;;;;20.28;76.00;98165.13;1682625;85;20274;-88
2022/06/27 05:14:02;;;;;;;;;;;;;;;20.50;75.97;98163.13;1682718;85;20273;-88
2022/06/27 05:16:27;;;;;;;;;;;;;;;20.63;74.68;98167.52;1683740;84;20161;-88
2022/06/27 05:18:53;;;;;;;;;;;;;;;20.78;74.13;98170.19;1682365;84;20236;-87
2022/06/27 05:21:19;;;;;;;;;;;;;;;20.98;74.23;98178.10;1681355;85;21152;-83
2022/06/27 05:23:45;;;;;;;;;;;;;;;21.16;74.09;98175.92;1670932;86;20750;-89
2022/06/27 05:26:10;;;;;;;;;;;;;;;21.26;72.73;98176.82;1679400;85;20194;-88
2022/06/27 05:28:37;;;;;;;;;;;;;;;21.46;73.30;98180.06;1682577;84;20174;-83
2022/06/27 05:31:05;;;;;;;;;;;;;;;21.61;72.81;98175.77;1682688;85;20185;-88
2022/06/27 05:33:30;;;;;;;;;;;;;;;21.77;72.60;98180.78;1684369;84;20600;-83
2022/06/27 05:35:56;;;;;;;;;;;;;;;21.98;71.73;98182.56;1691203;84;20199;-88
2022/06/27 05:38:22;;;;;;;;;;;;;;;22.08;70.82;98184.27;1682742;84;20227;-84
2022/06/27 05:40:48;;;;;;;;;;;;;;;22.20;70.40;98186.97;1682751;85;20669;-83
2022/06/27 05:43:14;;;;;;;;;;;;;;;22.37;69.24;98187.81;1682843;84;20504;-89
2022/06/27 05:45:40;;;;;;;;;;;;;;;22.54;68.74;98184.72;1682869;85;21029;-88
2022/06/27 05:48:07;;;;;;;;;;;;;;;22.67;66.53;98178.55;1682996;85;20193;-83
2022/06/27 05:50:33;;;;;;;;;;;;;;;22.92;68.47;98186.13;1677708;85;20200;-83
2022/06/27 05:52:59;;;;;;;;;;;;;;;22.98;66.01;98186.86;1660343;85;20830;-83
2022/06/27 05:55:28;;;;;;;;;;;;;;;23.24;67.69;98184.91;1680012;85;20212;-88
2022/06/27 05:57:58;;;;;;;;;;;;;;;23.41;66.81;98180.96;1662264;85;21200;-84
2022/06/27 06:00:24;;;;;;;;;;;;;;;23.49;66.13;98175.81;1682527;85;20171;-89
2022/06/27 06:02:53;;;;;;;;;;;;;;;23.61;65.64;98180.47;1677696;84;20178;-83
2022/06/27 06:05:19;;;;;;;;;;;;;;;23.78;64.32;98184.78;1680678;85;20242;-83
2022/06/27 06:07:45;;;;;;;;;;;;;;;23.95;65.24;98178.02;1684956;85;20209;-89
2022/06/27 06:10:11;;;;;;;;;;;;;;;24.13;63.53;98180.56;1677143;84;21156;-83
2022/06/27 06:12:37;;;;;;;;;;;;;;;24.10;64.54;98180.72;1681514;84;20268;-83
2022/06/27 06:15:03;;;;;;;;;;;;;;;24.31;63.65;98186.45;1679344;84;20218;-83
2022/06/27 06:17:31;;;;;;;;;;;;;;;24.43;63.21;98187.10;1702454;82;20460;-83
2022/06/27 06:19:58;;;;;;;;;;;;;;;24.64;64.19;98181.75;1702620;83;20138;-83
2022/06/27 06:22:24;;;;;;;;;;;;;;;24.88;62.97;98189.70;1662912;84;21049;-83
2022/06/27 06:24:49;;;;;;;;;;;;;;;24.99;61.04;98188.49;1685463;84;20184;-83
2022/06/27 06:27:16;;;;;;;;;;;;;;;24.98;60.63;98182.73;1690401;84;20189;-83
2022/06/27 06:29:42;;;;;;;;;;;;;;;25.03;61.21;98179.08;1699679;83;20196;-83
2022/06/27 06:32:08;;;;;;;;;;;;;;;25.22;61.54;98187.13;1661897;83;20209;-83
2022/06/27 06:34:34;;;;;;;;;;;;;;;25.41;60.66;98187.60;1710478;82;21106;-83
2022/06/27 06:37:00;;;;;;;;;;;;;;;25.51;60.44;98183.59;1708005;83;20141;-83
2022/06/27 06:39:25;;;;;;;;;;;;;;;25.64;58.82;98177.80;1673936;84;20198;-83
2022/06/27 06:41:52;;;;;;;;;;;;;;;25.70;58.70;98181.27;1670028;83;20266;-83
2022/06/27 06:44:18;;;;;;;;;;;;;;;25.80;58.57;98185.39;1709279;82;20421;-83
2022/06/27 06:46:44;;;;;;;;;;;;;;;25.92;58.79;98185.17;1702115;83;20737;-83
2022/06/27 06:49:10;;;;;;;;;;;;;;;25.95;56.89;98188.57;1661264;84;20198;-83
2022/06/27 06:51:37;;;;;;;;;;;;;;;25.97;57.76;98188.98;1703665;82;20205;-83
2022/06/27 06:54:03;;;;;;;;;;;;;;;26.12;58.29;98189.38;1704056;82;20189;-84
2022/06/27 06:56:30;;;;;;;;;;;;;;;26.41;57.64;98193.33;1700207;82;20279;-84
2022/06/27 06:58:59;;;;;;;;;;;;;;;26.58;57.81;98183.58;1720544;82;21037;-90
2022/06/27 07:01:25;;;;;;;;;;;;;;;26.84;55.23;98184.03;1698720;82;20196;-89
2022/06/27 07:03:52;;;;;;;;;;;;;;;27.09;55.50;98183.45;1674591;83;20613;-89
2022/06/27 07:06:24;;;;;;;;;;;;;;;27.14;55.28;98175.55;1667554;83;20501;-88
2022/06/27 07:08:47;;;;;;;;;;;;;;;27.17;54.20;98166.43;1679230;84;20207;-89
2022/06/27 07:11:12;;;;;;;;;;;;;;;27.36;54.94;98161.22;1680567;84;21038;-88
2022/06/27 07:13:38;;;;;;;;;;;;;;;27.47;55.26;98169.03;1680908;84;20198;-89
2022/06/27 07:16:05;;;;;;;;;;;;;;;27.74;54.91;98167.42;1674510;84;20282;-84
2022/06/27 07:18:32;;;;;;;;;;;;;;;27.86;54.22;98169.06;1667920;84;20181;-88
2022/06/27 07:21:00;;;;;;;;;;;;;;;28.07;53.55;98171.36;1664143;85;20411;-89
2022/06/27 07:23:26;;;;;;;;;;;;;;;28.24;53.10;98169.02;1685966;83;21101;-90
2022/06/27 07:25:52;;;;;;;;;;;;;;;28.47;49.95;98172.31;1683433;84;20204;-88
2022/06/27 07:28:22;;;;;;;;;;;;;;;28.69;50.35;98159.19;1685544;83;20228;-84
2022/06/27 07:30:47;;;;;;;;;;;;;;;28.97;50.48;98169.62;1688787;83;20148;-84
2022/06/27 07:33:13;;;;;;;;;;;;;;;29.18;50.09;98170.99;1684816;83;20435;-84
2022/06/27 07:35:39;;;;;;;;;;;;;;;29.11;46.45;98168.20;1689531;83;21137;-84
2022/06/27 07:38:06;;;;;;;;;;;;;;;29.32;48.49;98159.03;1686128;83;20292;-84
2022/06/27 07:40:34;;;;;;;;;;;;;;;29.57;47.66;98163.20;1685777;83;20556;-84
2022/06/27 07:42:59;;;;;;;;;;;;;;;29.68;45.36;98157.58;1685898;83;20530;-84
2022/06/27 07:45:27;;;;;;;;;;;;;;;29.87;45.80;98158.51;1682576;83;20202;-84
2022/06/27 07:47:54;;;;;;;;;;;;;;;30.16;43.35;98155.02;1684842;83;21298;-84
2022/06/27 07:53:12;;;;;;;;;;;;;;;30.63;44.99;98161.75;1685119;84;20561;-84
2022/06/27 07:55:43;;;;;;;;;;;;;;;30.73;44.88;98165.09;1682334;83;20239;-84
2022/06/27 07:58:15;;;;;;;;;;;;;;;30.68;44.55;98162.72;1679963;83;20441;-84
2022/06/27 08:00:37;;;;;;;;;;;;;;;30.89;43.16;98159.18;1686255;83;21191;-84
2022/06/27 08:03:36;;;;;;;;;;;;;;;31.15;41.67;98153.56;1683792;83;20248;-84
2022/06/27 08:05:31;;;;;;;;;;;;;;;31.61;41.78;98149.52;1687300;83;20551;-84
2022/06/27 08:07:57;;;;;;;;;;;;;;;32.33;40.64;98148.11;1680081;83;20309;-84
2022/06/27 08:10:23;;;;;;;;;;;;;;;32.82;37.14;98153.59;1684936;83;20731;-90
2022/06/27 08:12:49;;;;;;;;;;;;;;;33.22;38.29;98150.14;1684516;83;21053;-91
2022/06/27 08:15:15;;;;;;;;;;;;;;;33.58;36.18;98156.71;1683290;85;20289;-90
2022/06/27 08:17:41;;;;;;;;;;;;;;;34.22;37.12;98154.66;1679917;83;20186;-91
2022/06/27 08:20:07;;;;;;;;;;;;;;;34.46;35.01;98159.59;1684045;83;20265;-90
2022/06/27 08:22:33;;;;;;;;;;;;;;;34.39;34.49;98152.69;1683188;83;20697;-92
2022/06/27 08:25:01;;;;;;;;;;;;;;;34.66;33.58;98158.92;1686495;84;21309;-91
2022/06/27 08:27:27;;;;;;;;;;;;;;;34.27;31.14;98152.76;1679214;84;21149;-91
2022/06/27 08:29:52;;;;;;;;;;;;;;;34.78;32.78;98156.84;1687117;83;20239;-91
2022/06/27 08:32:18;;;;;;;;;;;;;;;35.10;30.84;98157.29;1678495;83;20664;-89
2022/06/27 08:34:47;;;;;;;;;;;;;;;35.17;31.16;98151.48;1685619;83;20388;-89
2022/06/27 08:37:11;;;;;;;;;;;;;;;34.93;28.73;98153.69;1680100;83;21268;-90
2022/06/27 08:39:37;;;;;;;;;;;;;;;35.62;29.35;98150.09;1689041;83;20259;-91
2022/06/27 08:42:03;;;;;;;;;;;;;;;35.47;27.02;98148.31;1683887;80;21108;-86
2022/06/27 08:44:29;;;;;;;;;;;;;;;34.97;27.65;98147.37;1683226;83;20230;-90
2022/06/27 08:46:55;;;;;;;;;;;;;;;35.52;27.32;98153.39;1674668;83;20750;-89
2022/06/27 08:49:22;;;;;;;;;;;;;;;36.21;28.12;98143.81;1679818;84;21763;-90
2022/06/27 08:51:47;;;;;;;;;;;;;;;36.59;27.34;98149.54;1685912;83;20210;-91
2022/06/27 08:54:13;;;;;;;;;;;;;;;36.81;25.82;98138.34;1684134;84;20260;-91
2022/06/27 08:56:40;;;;;;;;;;;;;;;36.79;25.85;98149.30;1680256;84;20214;-91
2022/06/27 08:59:06;;;;;;;;;;;;;;;36.83;25.16;98146.52;1679242;84;21688;-91
2022/06/27 09:01:32;;;;;;;;;;;;;;;37.45;26.06;98148.95;1684544;83;21334;-90
2022/06/27 09:04:02;;;;;;;;;;;;;;;37.95;26.61;98142.94;1681632;84;20483;-91
2022/06/27 09:06:32;;;;;;;;;;;;;;;37.74;25.19;98140.22;1678271;84;20538;-92
2022/06/27 09:09:11;;;;;;;;;;;;;;;38.62;25.71;98141.73;1685283;83;20229;-91
2022/06/27 09:11:35;;;;;;;;;;;;;;;39.19;25.26;98140.06;1684881;84;20218;-90
2022/06/27 09:14:01;;;;;;;;;;;;;;;38.80;21.64;98138.23;1681656;84;21009;-92
2022/06/27 09:16:27;;;;;;;;;;;;;;;39.16;22.24;98141.02;1685007;83;20199;-85
2022/06/27 09:18:53;;;;;;;;;;;;;;;39.25;22.63;98135.36;1675515;83;20677;-85
2022/06/27 09:21:19;;;;;;;;;;;;;;;40.02;23.43;98133.19;1698690;83;20624;-85
2022/06/27 09:23:53;;;;;;;;;;;;;;;39.49;22.76;98136.33;1683494;83;20257;-85
2022/06/27 09:26:21;;;;;;;;;;;;;;;39.07;21.76;98136.09;1682802;83;21226;-85
2022/06/27 09:28:53;;;;;;;;;;;;;;;39.41;22.20;98137.11;1685465;83;20144;-85
2022/06/27 09:31:30;;;;;;;;;;;;;;;38.66;21.90;98135.94;1681854;84;20228;-85
2022/06/27 09:34:09;;;;;;;;;;;;;;;38.41;21.99;98133.31;1686494;83;20643;-85
2022/06/27 09:36:38;;;;;;;;;;;;;;;38.56;21.06;98129.45;1682062;83;20275;-85
2022/06/27 09:39:04;;;;;;;;;;;;;;;39.34;22.10;98126.87;1690204;83;21243;-91
2022/06/27 09:41:30;;;;;;;;;;;;;;;39.15;20.68;98130.95;1685191;84;20148;-89
2022/06/27 09:44:00;;;;;;;;;;;;;;;39.31;20.62;98129.23;1680859;85;20288;-92
2022/06/27 09:46:25;;;;;;;;;;;;;;;40.18;19.95;98134.89;1682794;83;20185;-91
2022/06/27 09:48:51;;;;;;;;;;;;;;;40.21;21.89;98128.25;1681183;83;20197;-90
2022/06/27 09:51:18;;;;;;;;;;;;;;;40.83;21.17;98120.60;1685191;83;21085;-91
2022/06/27 09:53:50;;;;;;;;;;;;;;;40.55;20.68;98123.43;1686324;83;20175;-91
2022/06/27 09:56:17;;;;;;;;;;;;;;;41.10;20.23;98113.20;1681499;84;20234;-91
2022/06/27 09:58:42;;;;;;;;;;;;;;;41.07;20.05;98119.87;1680983;83;20176;-91
2022/06/27 10:01:10;;;;;;;;;;;;;;;40.25;20.07;98121.79;1684812;83;20185;-92
2022/06/27 10:03:36;;;;;;;;;;;;;;;41.44;19.76;98123.25;1681150;83;21071;-91
2022/06/27 10:06:03;;;;;;;;;;;;;;;42.27;20.39;98114.76;1681641;83;20206;-91
2022/06/27 10:08:33;;;;;;;;;;;;;;;42.96;19.56;98116.13;1709757;82;20218;-91
2022/06/27 10:11:09;;;;;;;;;;;;;;;42.46;17.55;98121.80;1703960;82;20167;-92
2022/06/27 10:13:36;;;;;;;;;;;;;;;42.38;17.71;98114.15;1663158;84;20235;-90
2022/06/27 10:16:06;;;;;;;;;;;;;;;42.06;17.69;98111.02;1659193;84;21059;-91
2022/06/27 10:19:03;;;;;;;;;;;;;;;43.19;18.48;98110.73;1673076;84;20200;-90
2022/06/27 10:21:31;;;;;;;;;;;;;;;43.37;18.60;98109.69;1675323;83;20197;-91
2022/06/27 10:24:29;;;;;;;;;;;;;;;43.69;17.98;98105.66;1659441;84;20357;-90
2022/06/27 10:26:51;;;;;;;;;;;;;;;43.95;16.91;98107.11;1681518;82;20113;-89
2022/06/27 10:29:29;;;;;;;;;;;;;;;43.88;17.78;98099.00;1664177;84;21124;-91
2022/06/27 10:31:59;;;;;;;;;;;;;;;43.23;16.82;98097.04;1665922;83;20238;-92
2022/06/27 10:34:46;;;;;;;;;;;;;;;44.11;17.84;98094.29;1704512;82;20555;-86
2022/06/27 10:37:26;;;;;;;;;;;;;;;44.96;17.04;98095.11;1677890;84;20265;-86
2022/06/27 10:39:54;;;;;;;;;;;;;;;44.65;16.54;98097.35;1678742;84;20688;-86
2022/06/27 10:42:48;;;;;;;;;;;;;;;44.15;17.67;98092.01;1676581;82;21122;-86
2022/06/27 10:45:27;;;;;;;;;;;;;;;44.39;17.23;98088.19;1669975;84;20306;-86
2022/06/27 10:47:55;;;;;;;;;;;;;;;44.17;16.46;98085.92;1671543;84;20469;-86
2022/06/27 10:50:23;;;;;;;;;;;;;;;42.74;17.39;98076.70;1678552;85;20606;-86
2022/06/27 10:52:49;;;;;;;;;;;;;;;41.54;18.29;98080.70;1679389;84;20282;-86
2022/06/27 10:55:25;;;;;;;;;;;;;;;40.92;19.10;98077.19;1679338;84;21223;-86
2022/06/27 10:57:51;;;;;;;;;;;;;;;41.49;18.64;98074.89;1678721;85;20247;-86
2022/06/27 11:00:40;;;;;;;;;;;;;;;42.99;18.66;98072.41;1676380;84;20212;-86
2022/06/27 11:03:07;;;;;;;;;;;;;;;42.52;18.60;98082.03;1680355;83;20146;-86
2022/06/27 11:06:00;;;;;;;;;;;;;;;42.17;18.83;98072.03;1677244;84;20238;-86
2022/06/27 11:08:26;;;;;;;;;;;;;;;43.31;18.55;98073.95;1673666;84;21137;-86
2022/06/27 11:10:51;;;;;;;;;;;;;;;44.07;17.33;98066.61;1673392;84;20199;-86
2022/06/27 11:13:40;;;;;;;;;;;;;;;43.26;17.16;98067.55;1676633;84;20242;-86
2022/06/27 11:16:07;;;;;;;;;;;;;;;44.11;17.99;98060.82;1673250;84;20343;-86
2022/06/27 11:18:51;;;;;;;;;;;;;;;43.20;18.13;98062.42;1677515;84;20196;-86
2022/06/27 11:21:21;;;;;;;;;;;;;;;43.43;17.95;98052.88;1679639;84;21073;-86
2022/06/27 11:23:48;;;;;;;;;;;;;;;42.62;18.36;98052.81;1677015;84;20239;-86
2022/06/27 11:26:14;;;;;;;;;;;;;;;43.01;18.64;98049.89;1701649;82;20149;-86
2022/06/27 11:34:09;;;;;;;;;;;;;;;41.34;19.83;98060.00;1698165;82;21113;-85
2022/06/27 11:36:35;;;;;;;;;;;;;;;39.39;22.72;98051.76;1705156;82;20200;-86
2022/06/27 11:39:00;;;;;;;;;;;;;;;39.91;22.29;98052.05;1672136;84;21398;-86
2022/06/27 11:41:27;;;;;;;;;;;;;;;40.88;21.09;98045.35;1706582;82;20243;-86
2022/06/27 11:44:12;;;;;;;;;;;;;;;40.72;21.55;98044.31;1701971;82;20255;-85
2022/06/27 11:46:49;;;;;;;;;;;;;;;41.09;21.12;98045.66;1672042;84;21129;-86
2022/06/27 11:49:19;;;;;;;;;;;;;;;39.14;23.59;98053.67;1704130;83;20669;-85
2022/06/27 11:51:50;;;;;;;;;;;;;;;37.42;24.42;98046.09;1697765;82;20472;-85
2022/06/27 11:54:18;;;;;;;;;;;;;;;36.80;24.34;98048.64;1697495;82;20220;-85
2022/06/27 11:56:45;;;;;;;;;;;;;;;35.82;25.86;98051.32;1698789;83;20193;-85
2022/06/27 11:59:13;;;;;;;;;;;;;;;34.98;28.07;98056.84;1704359;83;21598;-85
2022/06/27 12:01:56;;;;;;;;;;;;;;;35.10;27.83;98054.53;1706245;82;20188;-85
2022/06/27 12:04:26;;;;;;;;;;;;;;;34.64;28.83;98047.44;1668937;84;20202;-85
2022/06/27 12:06:55;;;;;;;;;;;;;;;34.31;28.96;98047.22;1672346;85;20211;-85
2022/06/27 12:09:22;;;;;;;;;;;;;;;33.89;29.13;98049.16;1679325;85;20144;-85
2022/06/27 12:11:57;;;;;;;;;;;;;;;33.39;30.11;98036.73;1675601;84;21042;-85
2022/06/27 12:14:23;;;;;;;;;;;;;;;33.14;31.79;98031.58;1663108;83;20540;-85
2022/06/27 12:16:51;;;;;;;;;;;;;;;32.81;31.37;98038.97;1676676;84;20366;-85
2022/06/27 12:19:17;;;;;;;;;;;;;;;32.63;30.79;98029.46;1679868;84;20138;-85
2022/06/27 12:21:43;;;;;;;;;;;;;;;34.88;27.94;98033.97;1671519;84;20176;-85
2022/06/27 12:24:09;;;;;;;;;;;;;;;36.46;26.48;98028.20;1674922;84;21161;-85
2022/06/27 12:26:35;;;;;;;;;;;;;;;37.82;25.51;98032.10;1678304;84;20769;-85
2022/06/27 12:29:01;;;;;;;;;;;;;;;39.08;23.78;98040.58;1670809;84;20790;-86
2022/06/27 12:31:26;;;;;;;;;;;;;;;40.64;22.90;98037.43;1682684;84;20345;-85
2022/06/27 12:33:52;;;;;;;;;;;;;;;40.58;21.49;98028.78;1678695;84;20235;-86
2022/06/27 12:36:18;;;;;;;;;;;;;;;41.65;20.24;98026.87;1674807;84;21268;-85
2022/06/27 12:38:44;;;;;;;;;;;;;;;41.04;20.46;98022.19;1681342;84;20202;-85
2022/06/27 12:41:14;;;;;;;;;;;;;;;41.15;20.70;98023.83;1680408;84;20210;-86
2022/06/27 12:43:42;;;;;;;;;;;;;;;40.67;21.83;98020.83;1673311;84;20526;-86
2022/06/27 12:46:08;;;;;;;;;;;;;;;41.41;20.80;98017.63;1678203;85;20195;-85
2022/06/27 12:48:34;;;;;;;;;;;;;;;42.14;20.12;98018.96;1677271;83;21107;-86
2022/06/27 12:51:00;;;;;;;;;;;;;;;42.25;20.73;98014.86;1673895;83;20527;-85
2022/06/27 12:53:26;;;;;;;;;;;;;;;41.09;20.66;98013.62;1677159;84;20207;-86
2022/06/27 12:55:53;;;;;;;;;;;;;;;42.88;19.28;98010.96;1672402;85;20276;-86
2022/06/27 12:58:18;;;;;;;;;;;;;;;41.66;20.55;98014.86;1676763;83;20173;-86
2022/06/27 13:00:44;;;;;;;;;;;;;;;41.66;20.22;98019.13;1680019;84;21198;-86
2022/06/27 13:03:10;;;;;;;;;;;;;;;41.81;21.09;98011.41;1678506;84;20195;-91